Time;durP1;ratioP1;P1;durP2;ratioP2;P2;SDS_P1;SDS_P2;PMS_P1;PMS_P2;Temp;Humidity;BMP_temperature;BMP_pressure;BME280_temperature;BME280_humidity;BME280_pressure;Samples;Min_cycle;Max_cycle;Signal;HPM_P1;HPM_P2
2023/09/28 00:01:18;;;;;;;4.57;3.10;;;;;;;18.20;81.26;101205.75;4968113;28;20042;-72
2023/09/28 00:03:47;;;;;;;4.55;3.13;;;;;;;18.15;81.10;101217.53;4966584;28;20145;-72
2023/09/28 00:06:14;;;;;;;6.80;3.00;;;;;;;18.13;81.19;101210.56;4973282;28;20047;-72
2023/09/28 00:08:42;;;;;;;6.65;2.83;;;;;;;18.11;81.06;101212.44;4967831;28;20050;-72
2023/09/28 00:11:09;;;;;;;7.28;3.22;;;;;;;18.09;81.01;101220.53;4965925;28;20105;-71
2023/09/28 00:13:36;;;;;;;4.30;2.90;;;;;;;18.09;81.40;101225.00;4968476;28;20046;-71
2023/09/28 00:16:04;;;;;;;4.95;2.95;;;;;;;18.08;81.33;101216.16;4971224;28;20125;-71
2023/09/28 00:18:31;;;;;;;5.53;2.83;;;;;;;18.07;81.19;101211.75;4968912;28;20177;-71
2023/09/28 00:20:58;;;;;;;4.72;2.88;;;;;;;18.08;80.60;101220.59;4967874;28;20418;-71
2023/09/28 00:23:26;;;;;;;5.28;2.85;;;;;;;18.06;81.00;101204.69;4968554;28;20145;-72
2023/09/28 00:25:53;;;;;;;6.20;3.03;;;;;;;18.05;80.34;101215.47;4968352;28;20043;-71
2023/09/28 00:28:21;;;;;;;4.90;2.95;;;;;;;18.03;80.86;101217.34;4967565;28;20041;-71
2023/09/28 00:30:48;;;;;;;5.43;3.08;;;;;;;18.00;80.79;101211.25;4998784;28;20046;-71
2023/09/28 00:33:15;;;;;;;4.47;2.78;;;;;;;17.98;80.57;101210.47;4967579;28;20123;-72
2023/09/28 00:35:43;;;;;;;5.57;2.75;;;;;;;17.99;80.74;101222.00;4967270;28;20059;-71
2023/09/28 00:38:10;;;;;;;4.28;2.60;;;;;;;17.95;80.73;101225.75;4966894;28;20046;-70
2023/09/28 00:40:41;;;;;;;6.07;2.90;;;;;;;17.92;80.59;101221.44;4966439;28;20043;-71
2023/09/28 00:43:10;;;;;;;4.43;2.78;;;;;;;17.91;80.40;101229.50;4967543;28;20043;-70
2023/09/28 00:45:38;;;;;;;5.40;3.15;;;;;;;17.89;80.91;101228.75;4967243;28;20058;-70
2023/09/28 00:48:09;;;;;;;5.47;2.97;;;;;;;17.87;80.66;101231.50;4966822;28;20046;-70
2023/09/28 00:50:37;;;;;;;4.75;3.03;;;;;;;17.86;80.70;101227.09;4968530;28;20057;-70
2023/09/28 00:53:08;;;;;;;6.13;3.00;;;;;;;17.84;80.61;101239.69;4966176;28;20096;-70
2023/09/28 00:55:39;;;;;;;4.57;2.90;;;;;;;17.80;80.74;101243.44;4963144;28;20046;-70
2023/09/28 00:58:10;;;;;;;4.03;2.60;;;;;;;17.77;80.96;101239.16;4967316;28;20035;-70
2023/09/28 01:00:40;;;;;;;6.28;3.10;;;;;;;17.75;81.20;101248.19;4965431;28;20488;-70
2023/09/28 01:03:08;;;;;;;6.72;2.88;;;;;;;17.72;81.10;101249.19;4966535;28;20043;-70
2023/09/28 01:05:42;;;;;;;5.22;2.95;;;;;;;17.70;81.22;101261.75;4967579;28;20141;-70
2023/09/28 01:08:14;;;;;;;6.35;2.90;;;;;;;17.68;80.83;101250.31;4963111;28;20818;-70
2023/09/28 01:10:43;;;;;;;4.40;2.95;;;;;;;17.65;81.14;101261.97;4963169;28;20122;-70
2023/09/28 01:13:15;;;;;;;6.68;3.00;;;;;;;17.63;80.98;101263.91;4970499;28;20494;-70
2023/09/28 01:15:47;;;;;;;5.03;3.05;;;;;;;17.60;81.08;101250.72;4966076;28;20125;-70
2023/09/28 01:18:17;;;;;;;5.78;3.22;;;;;;;17.56;81.08;101250.97;4965990;28;20630;-70
2023/09/28 01:20:47;;;;;;;4.55;2.90;;;;;;;17.53;81.08;101241.34;4966150;28;20105;-70
2023/09/28 01:23:15;;;;;;;5.80;3.00;;;;;;;17.50;81.26;101242.34;4964483;28;20038;-70
2023/09/28 01:25:46;;;;;;;6.47;3.05;;;;;;;17.49;81.33;101237.97;4965054;28;20042;-70
2023/09/28 01:28:16;;;;;;;4.57;2.50;;;;;;;17.46;81.52;101239.91;4947161;28;20546;-70
2023/09/28 01:30:46;;;;;;;7.82;3.08;;;;;;;17.45;81.67;101239.06;4964961;28;20051;-70
2023/09/28 01:33:13;;;;;;;6.85;2.80;;;;;;;17.43;81.64;101245.44;4966489;28;20035;-70
2023/09/28 01:35:41;;;;;;;7.82;3.08;;;;;;;17.40;81.84;101243.75;4967223;28;20078;-70
2023/09/28 01:38:36;;;;;;;5.82;3.22;;;;;;;17.38;81.59;101243.84;4967235;28;20043;-70
2023/09/28 01:41:03;;;;;;;5.10;2.97;;;;;;;17.37;81.68;101242.13;4962294;28;20051;-70
2023/09/28 01:43:30;;;;;;;3.85;3.00;;;;;;;17.36;81.92;101245.72;4950923;28;20047;-70
2023/09/28 01:45:57;;;;;;;5.32;3.10;;;;;;;17.34;81.87;101239.66;4957332;28;20047;-69
2023/09/28 01:48:25;;;;;;;6.10;3.08;;;;;;;17.33;82.01;101250.38;4966764;28;20049;-69
2023/09/28 01:50:52;;;;;;;5.90;3.40;;;;;;;17.30;82.23;101250.50;4966575;28;20126;-69
2023/09/28 01:53:21;;;;;;;7.18;3.10;;;;;;;17.29;82.26;101248.81;4966783;28;20555;-71
2023/09/28 01:55:50;;;;;;;7.53;3.30;;;;;;;17.27;82.33;101246.22;4965897;28;20133;-71
2023/09/28 01:58:18;;;;;;;7.13;3.28;;;;;;;17.26;82.30;101240.97;4965361;28;20039;-71
2023/09/28 02:00:46;;;;;;;5.47;3.45;;;;;;;17.23;82.71;101237.53;4964988;28;20042;-72
2023/09/28 02:03:14;;;;;;;6.10;3.28;;;;;;;17.20;82.86;101245.66;4966647;28;20559;-72
2023/09/28 02:05:42;;;;;;;6.70;3.55;;;;;;;17.19;82.77;101248.44;4964792;28;20051;-72
2023/09/28 02:08:10;;;;;;;8.68;3.53;;;;;;;17.15;82.91;101250.38;4971245;28;20038;-72
2023/09/28 02:10:38;;;;;;;4.95;3.30;;;;;;;17.13;82.94;101260.25;4969365;28;20430;-72
2023/09/28 02:13:05;;;;;;;8.52;3.50;;;;;;;17.11;82.88;101259.47;4980202;28;20043;-72
2023/09/28 02:15:33;;;;;;;5.90;3.30;;;;;;;17.09;83.13;101258.72;4966142;28;20047;-72
2023/09/28 02:18:01;;;;;;;4.03;3.22;;;;;;;17.06;83.16;101266.84;4966011;28;20047;-72
2023/09/28 02:20:30;;;;;;;5.10;3.50;;;;;;;17.02;83.65;101263.47;4966227;28;20074;-73
2023/09/28 02:22:57;;;;;;;5.35;3.25;;;;;;;16.99;83.82;101273.44;4967808;28;20058;-72
2023/09/28 02:25:26;;;;;;;6.13;3.72;;;;;;;16.96;83.78;101269.09;4966835;28;20384;-72
2023/09/28 02:27:53;;;;;;;5.57;3.35;;;;;;;16.93;83.96;101271.91;4967053;28;20077;-72
2023/09/28 02:30:23;;;;;;;5.53;3.45;;;;;;;16.91;84.08;101276.44;4965004;28;20603;-73
2023/09/28 02:32:55;;;;;;;7.88;3.97;;;;;;;16.89;84.26;101280.97;4964647;28;20131;-71
2023/09/28 02:35:24;;;;;;;7.95;3.97;;;;;;;16.85;84.45;101276.72;4962938;28;20133;-71
2023/09/28 02:37:53;;;;;;;6.20;3.47;;;;;;;16.83;84.51;101279.47;4966822;28;20046;-71
2023/09/28 02:40:21;;;;;;;5.75;3.83;;;;;;;16.79;84.43;101274.38;4964987;28;20039;-71
2023/09/28 02:42:50;;;;;;;4.97;3.60;;;;;;;16.74;84.90;101278.13;4965874;28;20142;-72
2023/09/28 02:45:17;;;;;;;8.45;4.03;;;;;;;16.71;84.83;101283.63;4966888;28;20047;-71
2023/09/28 02:47:48;;;;;;;5.90;4.00;;;;;;;16.68;84.99;101282.91;4964704;28;20053;-72
2023/09/28 02:50:18;;;;;;;7.45;4.15;;;;;;;16.64;85.17;101292.81;4966160;28;20634;-72
2023/09/28 02:52:46;;;;;;;5.32;3.90;;;;;;;16.60;85.31;101292.09;4965415;28;20063;-72
2023/09/28 02:55:17;;;;;;;6.78;4.00;;;;;;;16.58;85.62;101285.16;4966050;28;20050;-72
2023/09/28 02:57:47;;;;;;;6.05;4.28;;;;;;;16.54;85.70;101286.22;4958980;28;20134;-72
2023/09/28 03:02:46;;;;;;;5.07;4.13;;;;;;;16.48;86.09;101299.81;4968623;28;20049;-71
2023/09/28 03:05:16;;;;;;;10.00;4.45;;;;;;;16.42;86.07;101296.53;4969064;28;20097;-70
2023/09/28 03:07:45;;;;;;;6.13;4.15;;;;;;;16.38;86.37;101310.91;4956488;28;20053;-70
2023/09/28 03:10:13;;;;;;;6.18;4.15;;;;;;;16.35;86.52;101303.06;4969675;28;20435;-71
2023/09/28 03:12:45;;;;;;;8.50;4.32;;;;;;;16.31;86.67;101296.19;4971469;28;20042;-72
2023/09/28 03:15:13;;;;;;;7.15;4.05;;;;;;;16.27;86.91;101299.91;4969722;28;20061;-71
2023/09/28 03:17:41;;;;;;;6.75;4.40;;;;;;;16.24;87.12;101292.06;4968586;28;20043;-71
2023/09/28 03:20:14;;;;;;;5.03;4.30;;;;;;;16.21;87.26;101292.22;4969349;28;20397;-72
2023/09/28 03:22:46;;;;;;;8.10;4.15;;;;;;;16.18;87.41;101301.19;4967454;28;20039;-71
2023/09/28 03:25:17;;;;;;;6.85;4.45;;;;;;;16.15;87.71;101304.03;4968869;28;20360;-70
2023/09/28 03:27:50;;;;;;;5.85;4.25;;;;;;;16.15;87.87;101304.03;4970536;28;20825;-70
2023/09/28 03:30:20;;;;;;;7.68;4.65;;;;;;;16.14;88.20;101308.47;4968409;28;20054;-70
2023/09/28 03:32:48;;;;;;;6.60;4.70;;;;;;;16.14;88.45;101312.94;4968396;28;20500;-70
2023/09/28 03:35:17;;;;;;;7.18;4.82;;;;;;;16.14;88.54;101313.78;4969578;28;20047;-70
2023/09/28 03:37:46;;;;;;;7.90;4.25;;;;;;;16.16;88.74;101321.72;4955497;28;20077;-71
2023/09/28 03:40:16;;;;;;;6.07;4.65;;;;;;;16.15;88.92;101322.63;4969481;28;20047;-71
2023/09/28 03:42:48;;;;;;;6.63;4.82;;;;;;;16.11;88.71;101318.38;4969854;28;20042;-73
2023/09/28 03:45:20;;;;;;;6.75;4.75;;;;;;;16.08;88.98;101315.84;4969003;28;20046;-73
2023/09/28 03:47:51;;;;;;;6.00;4.57;;;;;;;16.05;89.17;101319.53;4968106;28;20072;-71
2023/09/28 03:50:21;;;;;;;11.65;4.88;;;;;;;16.04;89.41;101331.09;4969243;28;20150;-72
2023/09/28 03:52:49;;;;;;;10.77;5.20;;;;;;;16.03;89.90;101333.84;4951111;28;20047;-71
2023/09/28 03:55:21;;;;;;;10.02;4.95;;;;;;;16.02;90.06;101335.63;4966341;28;20118;-71
2023/09/28 03:57:50;;;;;;;8.35;5.05;;;;;;;16.00;90.15;101342.81;4968118;28;20077;-72
2023/09/28 04:00:19;;;;;;;6.20;4.53;;;;;;;15.98;90.18;101339.34;4963480;28;20039;-73
2023/09/28 04:02:50;;;;;;;7.05;4.88;;;;;;;15.94;90.38;101333.31;4966855;28;20507;-71
2023/09/28 04:05:23;;;;;;;6.37;4.33;;;;;;;15.95;90.40;101347.47;4968146;28;20035;-71
2023/09/28 04:07:50;;;;;;;8.25;4.93;;;;;;;15.93;90.65;101346.66;4969766;28;20035;-71
2023/09/28 04:10:19;;;;;;;8.02;5.25;;;;;;;15.92;90.85;101356.44;4969450;28;20503;-70
2023/09/28 04:12:52;;;;;;;8.55;5.53;;;;;;;15.90;90.95;101365.44;4966484;28;20819;-71
2023/09/28 04:15:21;;;;;;;9.07;5.30;;;;;;;15.89;91.27;101358.38;4962718;28;20051;-71
2023/09/28 04:17:48;;;;;;;11.52;5.30;;;;;;;15.88;91.49;101368.13;4962589;28;20061;-70
2023/09/28 04:20:16;;;;;;;10.07;5.43;;;;;;;15.86;91.27;101367.38;4967154;28;20061;-70
2023/09/28 04:22:43;;;;;;;9.05;4.95;;;;;;;15.81;91.28;101369.31;4968943;28;20118;-70
2023/09/28 04:25:11;;;;;;;9.65;5.50;;;;;;;15.77;91.89;101368.59;4967926;28;20156;-71
2023/09/28 04:27:38;;;;;;;8.52;5.32;;;;;;;15.75;92.39;101361.63;4967777;28;20113;-70
2023/09/28 04:30:08;;;;;;;7.35;5.35;;;;;;;15.74;92.52;101368.72;4968917;28;20046;-70
2023/09/28 04:32:36;;;;;;;9.57;5.30;;;;;;;15.74;93.15;101360.75;4964104;28;20067;-70
2023/09/28 04:35:10;;;;;;;8.00;5.53;;;;;;;15.76;93.17;101366.88;4960700;28;20067;-70
2023/09/28 04:37:39;;;;;;;7.05;5.25;;;;;;;15.76;93.19;101361.53;4961447;28;20117;-70
2023/09/28 04:40:08;;;;;;;6.45;5.13;;;;;;;15.75;93.31;101374.91;4968296;28;20042;-70
2023/09/28 04:42:36;;;;;;;6.60;5.32;;;;;;;15.73;93.31;101372.31;4966226;28;20251;-71
2023/09/28 04:45:04;;;;;;;5.72;4.78;;;;;;;15.71;93.53;101370.66;4966758;28;20078;-70
2023/09/28 04:47:32;;;;;;;6.88;5.22;;;;;;;15.70;93.47;101351.19;4965980;28;20043;-70
2023/09/28 04:50:04;;;;;;;6.80;5.32;;;;;;;15.69;93.63;101342.34;4961596;28;20522;-70
2023/09/28 04:52:31;;;;;;;7.15;5.47;;;;;;;15.68;93.88;101353.91;4967965;28;20589;-70
2023/09/28 04:54:59;;;;;;;10.20;5.57;;;;;;;15.68;93.91;101350.38;4967457;28;20047;-70
2023/09/28 04:57:26;;;;;;;6.97;5.10;;;;;;;15.67;94.38;101348.66;4969184;28;20105;-70
2023/09/28 04:59:53;;;;;;;6.70;5.57;;;;;;;15.66;93.87;101361.09;4965468;28;20100;-70
2023/09/28 05:02:21;;;;;;;11.02;5.63;;;;;;;15.66;94.16;101365.53;4971547;28;20047;-71
2023/09/28 05:04:48;;;;;;;11.90;5.90;;;;;;;15.68;94.42;101371.66;4963731;28;20034;-71
2023/09/28 05:07:15;;;;;;;8.25;5.75;;;;;;;15.68;94.47;101369.00;4967320;28;20606;-70
2023/09/28 05:09:44;;;;;;;7.78;5.63;;;;;;;15.67;94.88;101364.59;4967569;28;20038;-71
2023/09/28 05:12:11;;;;;;;9.52;6.07;;;;;;;15.66;94.48;101374.38;4966751;28;20382;-71
2023/09/28 05:14:41;;;;;;;10.85;6.15;;;;;;;15.66;94.92;101379.69;4967025;28;20042;-71
2023/09/28 05:17:08;;;;;;;8.55;6.00;;;;;;;15.64;94.95;101372.69;4966630;28;20050;-71
2023/09/28 05:19:35;;;;;;;9.95;5.50;;;;;;;15.61;94.81;101384.34;4966034;28;20121;-70
2023/09/28 05:22:03;;;;;;;8.55;5.70;;;;;;;15.59;95.37;101396.81;4967371;28;20034;-70
2023/09/28 05:24:30;;;;;;;10.13;6.15;;;;;;;15.56;95.67;101396.09;4967139;28;20050;-70
2023/09/28 05:26:57;;;;;;;8.98;5.72;;;;;;;15.53;95.01;101395.28;4966753;28;20054;-70
2023/09/28 05:29:24;;;;;;;9.48;6.00;;;;;;;15.51;95.59;101401.59;4967215;28;20051;-70
2023/09/28 05:31:52;;;;;;;8.35;5.10;;;;;;;15.48;95.68;101410.56;4963853;28;20155;-70
2023/09/28 05:34:19;;;;;;;13.60;6.70;;;;;;;15.47;96.04;101414.16;4964588;28;20055;-70
2023/09/28 05:36:47;;;;;;;11.45;6.07;;;;;;;15.47;96.34;101418.59;4963852;28;20113;-71
2023/09/28 05:39:14;;;;;;;11.68;5.97;;;;;;;15.48;96.69;101423.84;4963178;28;20075;-71
2023/09/28 05:41:41;;;;;;;11.00;5.85;;;;;;;15.51;96.93;101425.50;4961669;28;20067;-70
2023/09/28 05:44:08;;;;;;;9.27;5.90;;;;;;;15.53;96.75;101421.00;4963641;28;20035;-70
2023/09/28 05:46:40;;;;;;;7.90;5.47;;;;;;;15.56;96.99;101423.53;4962291;28;20567;-70
2023/09/28 05:49:07;;;;;;;11.95;6.10;;;;;;;15.61;97.12;101432.16;4963590;28;20061;-70
2023/09/28 05:51:35;;;;;;;10.02;5.90;;;;;;;15.62;96.95;101433.03;4963784;28;20054;-70
2023/09/28 05:54:03;;;;;;;10.25;5.80;;;;;;;15.67;97.20;101441.69;4963833;28;20703;-70
2023/09/28 05:56:30;;;;;;;12.20;5.80;;;;;;;15.71;97.30;101439.75;4966834;28;20423;-70
2023/09/28 05:58:57;;;;;;;10.00;5.88;;;;;;;15.75;97.44;101444.88;4965735;28;20039;-70
2023/09/28 06:01:24;;;;;;;9.77;5.72;;;;;;;15.83;97.58;101452.53;4965465;28;20046;-70
2023/09/28 06:03:52;;;;;;;11.57;6.07;;;;;;;15.90;97.41;101456.69;4965107;28;20899;-70
2023/09/28 06:06:23;;;;;;;9.80;5.60;;;;;;;15.96;97.67;101458.22;4967689;28;20578;-70
2023/09/28 06:08:51;;;;;;;13.48;5.90;;;;;;;16.05;97.26;101459.63;4969842;28;20519;-70
2023/09/28 06:11:22;;;;;;;8.20;5.45;;;;;;;16.11;97.27;101457.56;4973928;28;20458;-70
2023/09/28 06:13:49;;;;;;;11.18;5.85;;;;;;;16.17;97.16;101471.50;4967348;28;20043;-70
2023/09/28 06:16:36;;;;;;;16.77;4.90;;;;;;;16.23;97.03;101481.84;4966554;28;20053;-70
2023/09/28 06:19:04;;;;;;;8.43;4.57;;;;;;;16.28;97.00;101480.72;4965826;28;20054;-70
2023/09/28 06:21:32;;;;;;;13.73;4.82;;;;;;;16.36;96.60;101490.19;4963161;28;20043;-70
2023/09/28 06:23:59;;;;;;;12.50;4.70;;;;;;;16.41;95.76;101493.50;4965924;28;20566;-70
2023/09/28 06:26:27;;;;;;;15.50;5.03;;;;;;;16.46;95.66;101491.50;4965851;28;20146;-70
2023/09/28 06:29:08;;;;;;;14.57;4.95;;;;;;;16.49;95.80;101482.50;4963949;28;20039;-70
2023/09/28 06:31:36;;;;;;;16.95;5.32;;;;;;;16.52;95.19;101485.06;4967260;28;20051;-70
2023/09/28 06:34:04;;;;;;;18.88;5.50;;;;;;;16.57;95.10;101480.38;4974399;28;20614;-70
2023/09/28 06:36:32;;;;;;;16.13;4.95;;;;;;;16.58;94.62;101477.63;4969623;28;20105;-70
2023/09/28 06:39:04;;;;;;;10.63;4.57;;;;;;;16.61;94.80;101481.97;4971036;28;20058;-71
2023/09/28 06:41:31;;;;;;;12.88;4.95;;;;;;;16.64;94.33;101471.16;4969604;28;20062;-70
2023/09/28 06:43:58;;;;;;;13.45;5.50;;;;;;;16.66;94.09;101477.28;4969274;28;20550;-70
2023/09/28 06:46:26;;;;;;;13.52;4.93;;;;;;;16.70;94.04;101483.31;4969816;28;20050;-70
2023/09/28 06:48:53;;;;;;;12.18;4.80;;;;;;;16.72;93.86;101477.03;4969180;28;20059;-70
2023/09/28 06:51:22;;;;;;;23.10;4.90;;;;;;;16.77;93.54;101498.09;4971302;28;20043;-70
2023/09/28 06:53:49;;;;;;;15.52;4.80;;;;;;;16.81;93.95;101498.81;4970164;28;20105;-70
2023/09/28 06:56:16;;;;;;;15.18;5.03;;;;;;;16.86;93.54;101502.13;4966663;28;20047;-71
2023/09/28 06:58:44;;;;;;;10.20;4.53;;;;;;;16.89;93.27;101499.31;4968070;28;20127;-71
2023/09/28 07:01:11;;;;;;;14.75;4.97;;;;;;;16.94;93.00;101493.81;4969614;28;20525;-71
2023/09/28 07:03:38;;;;;;;13.93;4.90;;;;;;;16.97;93.09;101493.69;4969059;28;20090;-70
2023/09/28 07:06:05;;;;;;;13.55;5.25;;;;;;;17.00;92.62;101501.50;4969822;28;20105;-70
2023/09/28 07:08:33;;;;;;;13.30;5.28;;;;;;;17.05;92.27;101503.03;4971737;28;20047;-71
2023/09/28 07:11:01;;;;;;;17.13;5.15;;;;;;;17.11;92.43;101515.19;4969620;28;20128;-70
2023/09/28 07:13:28;;;;;;;21.05;5.70;;;;;;;17.18;92.35;101523.75;4971441;28;20464;-70
2023/09/28 07:15:57;;;;;;;16.98;5.07;;;;;;;17.22;92.19;101526.19;4968725;28;20566;-70
2023/09/28 07:18:25;;;;;;;18.27;5.32;;;;;;;17.28;91.93;101530.38;4969356;28;20071;-70
2023/09/28 07:20:53;;;;;;;19.20;5.18;;;;;;;17.34;91.47;101529.22;4969739;28;20075;-70
2023/09/28 07:23:20;;;;;;;14.25;5.00;;;;;;;17.38;91.78;101529.00;4975065;28;20039;-69
2023/09/28 07:25:50;;;;;;;13.73;4.72;;;;;;;17.44;91.01;101538.50;4970925;28;20487;-69
2023/09/28 07:28:18;;;;;;;12.07;4.97;;;;;;;17.50;91.17;101545.34;4969796;28;20047;-70
2023/09/28 07:30:45;;;;;;;12.23;5.35;;;;;;;17.58;90.69;101548.50;4964169;28;20070;-70
2023/09/28 07:33:15;;;;;;;13.05;5.05;;;;;;;17.65;90.33;101549.91;4964156;28;20046;-69
2023/09/28 07:35:44;;;;;;;11.32;4.70;;;;;;;17.71;90.08;101543.41;4967443;28;20078;-69
2023/09/28 07:38:12;;;;;;;21.67;5.70;;;;;;;17.78;90.08;101535.97;4970242;28;20046;-68
2023/09/28 07:40:39;;;;;;;13.57;4.43;;;;;;;17.85;89.79;101529.41;4969578;28;20051;-69
2023/09/28 07:43:09;;;;;;;9.77;4.30;;;;;;;17.89;89.86;101517.63;4969968;28;20078;-69
2023/09/28 07:45:37;;;;;;;13.13;5.00;;;;;;;17.93;89.20;101529.88;4970386;28;20515;-69
2023/09/28 07:48:05;;;;;;;12.98;5.10;;;;;;;17.95;88.96;101530.69;4967834;28;20047;-70
2023/09/28 07:50:33;;;;;;;20.38;4.70;;;;;;;17.96;88.87;101534.19;4970361;28;20039;-70
2023/09/28 07:53:00;;;;;;;15.05;4.63;;;;;;;17.98;87.99;101530.53;4969140;28;20031;-70
2023/09/28 07:55:27;;;;;;;12.52;4.10;;;;;;;18.02;88.28;101539.25;4969025;28;20047;-70
2023/09/28 07:57:55;;;;;;;18.13;4.60;;;;;;;18.10;86.96;101544.19;4969295;28;20097;-70
2023/09/28 08:00:42;;;;;;;18.60;4.57;;;;;;;18.16;86.21;101554.59;4969327;28;20049;-69
2023/09/28 08:03:09;;;;;;;15.20;4.43;;;;;;;18.23;86.15;101566.66;4967273;28;20129;-70
2023/09/28 08:05:37;;;;;;;20.75;4.18;;;;;;;18.31;84.90;101571.59;4969948;28;20077;-70
2023/09/28 08:08:05;;;;;;;18.10;4.65;;;;;;;18.36;83.37;101579.38;4969809;28;20149;-69
2023/09/28 08:10:42;;;;;;;12.20;3.70;;;;;;;18.40;83.77;101583.59;4968625;28;20038;-70
2023/09/28 08:13:10;;;;;;;22.55;4.05;;;;;;;18.46;83.78;101580.63;4969448;28;20046;-69
2023/09/28 08:15:41;;;;;;;19.58;3.75;;;;;;;18.53;82.78;101589.16;4969253;28;20557;-70
2023/09/28 08:18:09;;;;;;;25.42;4.00;;;;;;;18.59;82.15;101596.88;4967291;28;20117;-69
2023/09/28 08:20:37;;;;;;;14.15;3.60;;;;;;;18.67;82.18;101601.81;4968065;28;20181;-69
2023/09/28 08:23:09;;;;;;;21.33;4.43;;;;;;;18.74;80.92;101589.84;4968569;28;20126;-70
2023/09/28 08:25:37;;;;;;;16.70;3.85;;;;;;;18.79;79.71;101593.13;4965097;28;20100;-70
2023/09/28 08:28:04;;;;;;;24.13;3.95;;;;;;;18.85;78.94;101599.94;4962444;28;20563;-70
2023/09/28 08:30:31;;;;;;;18.17;3.80;;;;;;;18.90;78.00;101597.91;4965540;28;20050;-71
2023/09/28 08:32:59;;;;;;;22.80;3.53;;;;;;;18.92;77.14;101591.53;4968331;28;20070;-71
2023/09/28 08:35:29;;;;;;;18.73;4.25;;;;;;;18.95;76.44;101595.03;4964641;28;20046;-71
2023/09/28 08:37:56;;;;;;;19.67;4.13;;;;;;;18.96;76.73;101602.94;4968476;28;20081;-70
2023/09/28 08:40:24;;;;;;;18.15;3.63;;;;;;;18.99;76.36;101601.91;4968404;28;20039;-71
2023/09/28 08:42:59;;;;;;;23.15;4.00;;;;;;;19.02;76.67;101596.41;4968765;28;20084;-71
2023/09/28 08:45:29;;;;;;;22.23;3.80;;;;;;;19.05;76.76;101593.59;4968670;28;20539;-71
2023/09/28 08:47:59;;;;;;;26.50;4.32;;;;;;;19.15;76.02;101601.94;4967533;28;20046;-72
2023/09/28 08:50:37;;;;;;;19.63;3.63;;;;;;;19.24;76.94;101598.75;4968231;28;20069;-71
2023/09/28 08:53:06;;;;;;;20.50;3.60;;;;;;;19.38;73.85;101624.75;4972285;28;20042;-72
2023/09/28 08:55:34;;;;;;;18.80;3.63;;;;;;;19.49;73.73;101619.66;4988409;28;20050;-71
2023/09/28 08:58:02;;;;;;;31.50;4.32;;;;;;;19.59;74.51;101611.13;4987709;28;20593;-72
2023/09/28 09:00:30;;;;;;;24.58;4.05;;;;;;;19.66;74.38;101617.88;4967491;28;20042;-72
2023/09/28 09:02:58;;;;;;;20.60;3.60;;;;;;;19.66;73.80;101624.06;4965223;28;20521;-72
2023/09/28 09:05:29;;;;;;;17.52;3.65;;;;;;;19.71;74.09;101635.38;4967357;28;20049;-70
2023/09/28 09:07:59;;;;;;;34.47;5.28;;;;;;;19.76;72.27;101636.91;4968288;28;20475;-70
2023/09/28 09:10:27;;;;;;;21.63;3.15;;;;;;;19.88;71.11;101643.44;4965486;28;20507;-70
2023/09/28 09:12:55;;;;;;;20.95;3.60;;;;;;;19.88;71.29;101638.94;4966569;28;20053;-70
2023/09/28 09:15:22;;;;;;;21.05;3.42;;;;;;;19.83;71.14;101638.31;4967954;28;20098;-70
2023/09/28 09:17:59;;;;;;;23.52;4.00;;;;;;;19.91;71.51;101636.09;4968615;28;20055;-71
2023/09/28 09:20:29;;;;;;;20.08;3.13;;;;;;;20.04;69.89;101622.00;4969604;28;20070;-69
2023/09/28 09:23:11;;;;;;;25.65;3.60;;;;;;;20.21;69.90;101632.59;4969899;28;20057;-69
2023/09/28 09:25:41;;;;;;;18.00;3.53;;;;;;;20.25;70.48;101646.66;4987660;28;20048;-70
2023/09/28 09:28:09;;;;;;;21.40;3.75;;;;;;;20.16;69.77;101638.22;4969372;28;20046;-70
2023/09/28 09:30:36;;;;;;;18.17;3.58;;;;;;;20.19;68.73;101645.19;4967583;28;20444;-70
2023/09/28 09:33:09;;;;;;;20.70;3.75;;;;;;;20.22;69.26;101637.00;4967034;28;20043;-71
2023/09/28 09:35:38;;;;;;;;;;;;;;;20.24;68.15;101640.44;4966527;28;20149;-70
2023/09/28 09:38:06;;;;;;;16.95;3.15;;;;;;;20.22;68.62;101646.81;4966503;28;19926;-70
2023/09/28 09:40:34;;;;;;;28.20;4.38;;;;;;;20.26;68.66;101649.22;4956564;28;20109;-70
2023/09/28 09:43:10;;;;;;;17.60;3.22;;;;;;;20.25;68.77;101652.00;4967104;28;20043;-70
2023/09/28 09:45:40;;;;;;;20.30;3.67;;;;;;;20.34;68.80;101656.81;4966537;28;20577;-70
2023/09/28 09:48:11;;;;;;;20.05;3.45;;;;;;;20.45;68.94;101656.19;4968112;28;20073;-70
2023/09/28 09:50:39;;;;;;;25.88;4.05;;;;;;;20.62;68.93;101655.16;4967007;28;20035;-70
2023/09/28 09:53:07;;;;;;;18.10;3.33;;;;;;;20.81;69.30;101646.06;4965996;28;20074;-70
2023/09/28 09:55:41;;;;;;;12.73;2.90;;;;;;;20.97;67.93;101648.66;4967010;28;20046;-70
2023/09/28 09:58:21;;;;;;;21.63;3.40;;;;;;;21.05;67.12;101649.91;4966048;28;20054;-69
2023/09/28 10:00:50;;;;;;;13.65;3.08;;;;;;;21.01;66.76;101650.19;4966490;28;20043;-69
2023/09/28 10:03:18;;;;;;;16.83;2.80;;;;;;;20.89;65.61;101644.63;4951821;28;20591;-69
2023/09/28 10:05:46;;;;;;;12.85;3.10;;;;;;;20.78;65.59;101647.09;4965688;28;20035;-69
2023/09/28 10:08:16;;;;;;;18.10;3.20;;;;;;;20.70;65.68;101652.91;4966922;28;20059;-70
2023/09/28 10:10:45;;;;;;;17.23;3.25;;;;;;;20.53;65.85;101648.56;4966862;28;20050;-69
2023/09/28 10:13:14;;;;;;;11.20;2.55;;;;;;;20.47;66.39;101648.91;4966219;28;20752;-72
2023/09/28 10:15:43;;;;;;;16.60;3.55;;;;;;;20.42;66.65;101645.66;4966194;28;20415;-72
2023/09/28 10:18:10;;;;;;;20.30;3.30;;;;;;;20.47;66.34;101646.22;4966027;28;20050;-70
2023/09/28 10:20:38;;;;;;;20.02;3.90;;;;;;;20.53;66.43;101651.25;4966432;28;20126;-70
2023/09/28 10:23:23;;;;;;;18.67;3.58;;;;;;;20.68;66.20;101651.25;4972954;28;20035;-72
2023/09/28 10:25:59;;;;;;;18.77;3.20;;;;;;;20.84;66.24;101633.34;4960855;28;20042;-72
2023/09/28 10:28:26;;;;;;;16.60;3.65;;;;;;;21.04;66.22;101625.88;4967837;28;20051;-71
2023/09/28 10:31:10;;;;;;;21.58;4.18;;;;;;;21.18;64.96;101633.91;4967938;28;20057;-71
2023/09/28 10:33:58;;;;;;;;;;;;;;;21.38;64.01;101638.03;4966415;28;20045;-71
2023/09/28 10:36:27;;;;;;;18.98;3.78;;;;;;;21.68;64.51;101633.47;4964656;28;19926;-70
2023/09/28 10:39:09;;;;;;;12.80;2.78;;;;;;;21.90;64.21;101624.91;4965961;28;20078;-71
2023/09/28 10:41:38;;;;;;;15.32;3.15;;;;;;;21.96;62.14;101619.13;4966095;28;20638;-70
2023/09/28 10:44:17;;;;;;;15.70;3.40;;;;;;;21.94;62.21;101621.03;4970280;28;20043;-70
2023/09/28 10:46:47;;;;;;;15.77;2.95;;;;;;;21.91;62.13;101615.03;4966033;28;20562;-70
2023/09/28 10:49:22;;;;;;;12.05;2.95;;;;;;;21.83;62.39;101619.09;4965084;28;20476;-70
2023/09/28 10:51:57;;;;;;;15.73;3.08;;;;;;;21.69;61.69;101621.78;4967316;28;20472;-70
2023/09/28 10:54:24;;;;;;;15.95;2.95;;;;;;;21.48;62.05;101629.38;4967276;28;20126;-70
2023/09/28 10:56:52;;;;;;;22.77;3.95;;;;;;;21.38;62.98;101627.31;4967203;28;20574;-71
2023/09/28 10:59:20;;;;;;;15.10;3.00;;;;;;;21.49;62.74;101633.81;4965524;28;20043;-71
2023/09/28 11:01:48;;;;;;;16.35;3.25;;;;;;;21.55;62.53;101636.94;4963087;28;20114;-70
2023/09/28 11:04:16;;;;;;;16.50;3.15;;;;;;;21.60;61.66;101628.63;4965323;28;20164;-70
2023/09/28 11:06:45;;;;;;;18.80;2.97;;;;;;;21.66;62.55;101632.75;4966725;28;20070;-70
2023/09/28 11:09:14;;;;;;;15.85;3.17;;;;;;;21.80;61.91;101627.31;4966463;28;20053;-70
2023/09/28 11:11:41;;;;;;;11.48;2.67;;;;;;;21.93;61.54;101632.72;4966692;28;20114;-70
2023/09/28 11:14:10;;;;;;;11.93;2.40;;;;;;;22.06;60.56;101637.31;4971279;28;20068;-71
2023/09/28 11:16:49;;;;;;;20.95;3.15;;;;;;;22.15;60.00;101628.63;4986332;28;20078;-70
2023/09/28 11:19:16;;;;;;;18.40;2.83;;;;;;;22.23;59.64;101637.03;4987042;28;20585;-70
2023/09/28 11:21:43;;;;;;;14.18;2.90;;;;;;;22.32;59.75;101635.56;4968734;28;20134;-70
2023/09/28 11:24:14;;;;;;;20.67;2.90;;;;;;;22.38;61.14;101636.97;4970479;28;20472;-70
2023/09/28 11:26:44;;;;;;;12.20;2.92;;;;;;;22.52;60.15;101647.66;4970349;28;20058;-70
2023/09/28 11:29:11;;;;;;;17.85;2.95;;;;;;;22.58;60.17;101647.25;4969838;28;20141;-70
2023/09/28 11:31:52;;;;;;;13.93;2.70;;;;;;;22.56;59.03;101653.69;4968796;28;20570;-70
2023/09/28 11:34:37;;;;;;;14.63;3.33;;;;;;;22.52;59.64;101655.72;4969919;28;20043;-70